OIIS  Semnan  Airport

Semnan, Iran

Add Bookmark
ICAO OIIS
Type Airport
Status Operational
Latitude
35° 35' 27" N
35.591099
Longitude
53° 29' 42" E
53.495098
Local (DST + 5) UTC (GMT + 4)
Apr 25, 2015 03:27 Apr 25, 2015 10:57
Sunrise-Sunset Local UTC
Begin Civil Twilight 05:42 01:12
Sunrise 06:09 01:39
Sunset 07:38 15:08
End Civil Twilight 08:05 15:35
VFR
VFR
MVFR
MVFR
IFR
VFR
LIFR
VFR
Unknown
Unavailable

Current Weather

METAR Observed VFR
OIIS 250100Z 01004KT CAVOK 18/M01 Q1011 Sat, Apr 25, 2015 @ 01:00 UTC
(9 Hours, 57 Minutes ago)
Visual Flight Rules
Wind Visibility Conditions
010° at 4 knots (7 kph) 10 km or more
  • No significant weather
Temperatures Readings Precipitation
Current Temp
18°C
64°F
Dewpoint
-1°C
30°F
Humidity 28%
Altimeter 29.85" Hg
Sea Level Pressure 1,011 mb
Field Elevation
1,115 m
3,658 ft
None Recorded
-
-

CheckWX.com is intended as a tool to help pilots better visualize weather data. It is not intended as a substitute for an official weather briefing obtained from a Flight Service Station. CheckWX.com does not meet the FAA requirements for an official pre-flight weather briefing. Therefore, it's important that pilots still call and obtain an official FSS pre-flight weather briefing.

© 2007-2015 CheckWX.com
10:57:21 UTC